Time;durP1;ratioP1;P1;durP2;ratioP2;P2;SDS_P1;SDS_P2;PMS_P1;PMS_P2;Temp;Humidity;BMP_temperature;BMP_pressure;BME280_temperature;BME280_humidity;BME280_pressure;Samples;Min_cycle;Max_cycle;Signal;HPM_P1;HPM_P2
2022/10/20 00:01:52;;;;;;;11.55;6.55;;;4.50;99.90;;;2.82;100.00;101561.75;4922270;29;20051;-76
2022/10/20 00:04:18;;;;;;;13.23;6.68;;;4.40;99.90;;;2.80;100.00;101551.13;4917340;29;20042;-76
2022/10/20 00:06:44;;;;;;;14.90;6.38;;;4.40;99.90;;;2.69;100.00;101541.38;4918469;29;20032;-77
2022/10/20 00:09:11;;;;;;;14.65;6.88;;;4.30;99.90;;;2.63;100.00;101541.91;4918313;28;20395;-76
2022/10/20 00:11:37;;;;;;;16.35;6.80;;;4.30;99.90;;;2.46;100.00;101524.63;4921064;29;20442;-76
2022/10/20 00:14:04;;;;;;;12.65;6.68;;;4.20;99.90;;;2.51;100.00;101532.28;4918333;29;20032;-75
2022/10/20 00:16:35;;;;;;;13.57;6.80;;;4.10;99.90;;;2.54;100.00;101537.38;4919403;29;20126;-76
2022/10/20 00:19:00;;;;;;;13.10;6.65;;;4.10;99.90;;;2.49;100.00;101521.63;4917109;29;20032;-76
2022/10/20 00:21:28;;;;;;;16.08;6.78;;;4.20;99.90;;;2.40;100.00;101519.81;4916825;29;20040;-77
2022/10/20 00:23:55;;;;;;;13.48;6.97;;;4.10;99.90;;;2.43;100.00;101523.06;4917729;29;20118;-76
2022/10/20 00:26:24;;;;;;;14.30;7.13;;;4.10;99.90;;;2.36;100.00;101515.69;4914486;29;20403;-76
2022/10/20 00:28:51;;;;;;;14.00;7.25;;;4.10;99.90;;;2.42;100.00;101515.13;4919558;29;20475;-75
2022/10/20 00:31:20;;;;;;;11.05;6.75;;;4.00;99.90;;;2.38;100.00;101509.16;4916874;29;20032;-75
2022/10/20 00:33:47;;;;;;;15.38;7.22;;;4.00;99.90;;;2.27;100.00;101490.47;4920899;29;20036;-77
2022/10/20 00:36:16;;;;;;;13.95;7.43;;;4.00;99.90;;;2.22;100.00;101487.34;4924062;29;20102;-77
2022/10/20 00:38:42;;;;;;;13.00;6.75;;;3.90;99.90;;;2.13;100.00;101495.28;4922562;29;20106;-77
2022/10/20 00:41:20;;;;;;;13.93;7.30;;;3.80;99.90;;;2.03;100.00;101486.34;4926669;29;20028;-76
2022/10/20 00:43:51;;;;;;;16.40;7.10;;;3.70;99.90;;;2.04;100.00;101493.41;4922772;28;20186;-76
2022/10/20 00:46:29;;;;;;;17.58;7.85;;;3.70;99.90;;;2.03;100.00;101474.72;4924685;29;20120;-77
2022/10/20 00:49:01;;;;;;;16.52;7.93;;;3.70;99.90;;;2.10;100.00;101476.69;4920858;29;20059;-76
2022/10/20 00:51:32;;;;;;;16.30;7.53;;;3.70;99.90;;;2.14;100.00;101467.38;4921146;29;20042;-76
2022/10/20 00:54:12;;;;;;;17.20;7.70;;;3.80;99.90;;;2.16;100.00;101461.81;4917384;29;20050;-76
2022/10/20 00:56:43;;;;;;;17.98;8.68;;;3.80;99.90;;;2.24;100.00;101461.13;4920240;28;20602;-76
2022/10/20 00:59:13;;;;;;;15.07;8.07;;;3.80;99.90;;;2.26;100.00;101459.13;4920006;29;20091;-75
2022/10/20 01:01:40;;;;;;;18.98;8.80;;;4.00;99.90;;;2.32;100.00;101460.44;4921812;29;20138;-75
2022/10/20 01:04:07;;;;;;;17.10;8.15;;;3.90;99.90;;;2.32;100.00;101460.44;4924703;28;20028;-75
2022/10/20 01:06:33;;;;;;;16.40;8.52;;;3.90;99.90;;;2.27;100.00;101474.31;4922965;29;20040;-75
2022/10/20 01:08:59;;;;;;;19.70;8.55;;;3.90;99.90;;;2.23;100.00;101464.81;4920771;29;20293;-75
2022/10/20 01:11:46;;;;;;;16.17;7.50;;;3.90;99.90;;;2.19;100.00;101468.78;4925164;29;20051;-76
2022/10/20 01:14:31;;;;;;;13.27;7.18;;;3.80;99.90;;;2.10;100.00;101462.41;4919023;29;20487;-76
2022/10/20 01:17:19;;;;;;;11.88;7.63;;;3.80;99.90;;;2.00;100.00;101454.31;4917969;29;20031;-76
2022/10/20 01:20:17;;;;;;;14.57;7.93;;;3.70;99.90;;;1.93;100.00;101456.72;4919786;29;20042;-74
2022/10/20 01:23:22;;;;;;;16.73;8.38;;;3.60;99.90;;;1.83;100.00;101437.84;4922974;29;20027;-75
2022/10/20 01:26:21;;;;;;;16.80;7.75;;;3.50;99.90;;;1.77;100.00;101435.72;4922355;28;20127;-75
2022/10/20 01:29:04;;;;;;;14.60;7.55;;;3.50;99.90;;;1.60;100.00;101425.66;4922041;29;20071;-75
2022/10/20 01:31:56;;;;;;;15.02;7.95;;;3.40;99.90;;;1.58;100.00;101432.00;4927754;29;20055;-76
2022/10/20 01:34:48;;;;;;;15.23;7.63;;;3.30;99.90;;;1.56;100.00;101430.47;4920934;29;20641;-76
2022/10/20 01:37:22;;;;;;;15.27;8.07;;;3.30;99.90;;;1.64;100.00;101437.84;4927628;28;20055;-75
2022/10/20 01:39:56;;;;;;;13.90;7.85;;;3.30;99.90;;;1.69;100.00;101443.66;4927528;28;20386;-75
2022/10/20 01:42:25;;;;;;;15.32;8.57;;;3.30;99.90;;;1.87;100.00;101438.44;4925495;29;20343;-77
2022/10/20 01:44:59;;;;;;;17.80;8.77;;;3.50;99.90;;;1.93;100.00;101427.09;4921763;29;20059;-76
2022/10/20 01:47:27;;;;;;;16.38;8.95;;;3.60;99.90;;;2.10;100.00;101435.47;4917615;29;20127;-76
2022/10/20 01:49:55;;;;;;;19.00;9.35;;;3.70;99.90;;;2.09;100.00;101431.91;4921722;29;20091;-75
2022/10/20 01:52:22;;;;;;;;;;;3.70;99.90;;;1.99;100.00;101426.56;4921789;29;20559;-75
2022/10/20 01:54:48;;;;;;;16.98;9.13;;;3.70;99.90;;;1.94;100.00;101415.34;4923553;29;19914;-76
2022/10/20 01:57:41;;;;;;;15.63;9.18;;;3.60;99.90;;;1.91;100.00;101417.50;4915715;29;20067;-76
2022/10/20 02:00:16;;;;;;;17.30;8.77;;;3.50;99.90;;;1.92;100.00;101419.19;4920655;29;20036;-76
2022/10/20 02:03:38;;;;;;;15.48;8.60;;;3.60;99.90;;;1.92;100.00;101413.81;4923116;28;20031;-76
2022/10/20 02:06:44;;;;;;;14.05;8.40;;;3.60;99.90;;;1.91;100.00;101404.88;4919002;29;20023;-76
2022/10/20 02:09:22;;;;;;;19.67;10.27;;;3.60;99.90;;;1.93;100.00;101400.19;4918186;29;20047;-76
2022/10/20 02:12:16;;;;;;;16.45;8.05;;;3.60;99.90;;;2.01;100.00;101407.56;4924512;29;20031;-76
2022/10/20 02:14:45;;;;;;;22.42;10.10;;;3.60;99.90;;;2.03;100.00;101396.66;4923780;28;20028;-76
2022/10/20 02:17:17;;;;;;;19.15;9.02;;;3.60;99.90;;;1.69;100.00;101344.13;4924278;29;20027;-76
2022/10/20 02:19:48;;;;;;;16.50;9.13;;;3.70;99.90;;;2.05;100.00;101406.28;4926368;29;20139;-76
2022/10/20 02:22:15;;;;;;;19.40;9.50;;;3.70;99.90;;;1.99;100.00;101404.16;4923810;29;20514;-75
2022/10/20 02:24:43;;;;;;;14.18;8.57;;;3.60;99.90;;;1.93;100.00;101408.25;4923296;29;20024;-75
2022/10/20 02:27:21;;;;;;;16.35;8.57;;;3.60;99.90;;;1.85;100.00;101390.13;4919774;28;20047;-75
2022/10/20 02:30:00;;;;;;;21.90;8.63;;;3.50;99.90;;;1.77;100.00;101381.09;4924004;29;20087;-75
2022/10/20 02:32:28;;;;;;;16.60;8.38;;;3.50;99.90;;;1.58;100.00;101358.56;4929746;29;20052;-75
2022/10/20 02:34:54;;;;;;;18.40;8.60;;;3.40;99.90;;;1.54;100.00;101370.59;4928089;29;20031;-75
2022/10/20 02:37:20;;;;;;;20.38;8.85;;;3.30;99.90;;;1.50;100.00;101379.94;4930085;29;20095;-75
2022/10/20 02:39:45;;;;;;;19.90;9.18;;;3.20;99.90;;;1.44;100.00;101368.72;4929738;29;20039;-75
2022/10/20 02:42:11;;;;;;;18.27;9.60;;;3.20;99.90;;;1.40;100.00;101361.09;4928630;28;20035;-75
2022/10/20 02:44:37;;;;;;;17.60;9.98;;;3.10;99.90;;;1.45;100.00;101369.56;4930118;28;20036;-75
2022/10/20 02:47:03;;;;;;;17.60;8.75;;;3.10;99.90;;;1.48;100.00;101357.69;4928310;28;20471;-75
2022/10/20 02:49:29;;;;;;;22.40;9.65;;;3.20;99.90;;;1.69;100.00;101352.19;4925797;28;20115;-75
2022/10/20 02:51:55;;;;;;;21.30;8.98;;;3.30;99.90;;;1.71;100.00;101342.97;4924202;28;20566;-75
2022/10/20 02:54:21;;;;;;;20.20;8.90;;;3.40;99.90;;;1.81;100.00;101351.03;4923459;29;20035;-75
2022/10/20 02:56:46;;;;;;;17.42;9.20;;;3.40;99.90;;;1.89;100.00;101346.81;4925961;29;20071;-76
2022/10/20 02:59:15;;;;;;;18.88;9.98;;;3.50;99.90;;;2.01;100.00;101340.28;4925018;28;20039;-76
2022/10/20 03:01:42;;;;;;;16.67;9.90;;;3.60;99.90;;;2.04;100.00;101334.59;4927435;29;20122;-74
2022/10/20 03:04:08;;;;;;;19.65;8.98;;;3.60;99.90;;;2.03;100.00;101334.75;4929705;29;20035;-76
2022/10/20 03:06:34;;;;;;;21.67;10.32;;;3.70;99.90;;;2.09;100.00;101337.69;4929412;29;20042;-76
2022/10/20 03:08:59;;;;;;;18.92;9.68;;;3.80;99.90;;;2.13;100.00;101336.44;4928242;29;20605;-76
2022/10/20 03:11:26;;;;;;;15.48;8.95;;;3.80;99.90;;;2.05;100.00;101325.53;4929072;29;20070;-76
2022/10/20 03:13:52;;;;;;;16.75;9.48;;;3.70;99.90;;;2.01;100.00;101332.19;4923961;28;20039;-76
2022/10/20 03:16:18;;;;;;;18.60;8.40;;;3.70;99.90;;;1.95;100.00;101327.41;4924313;29;20031;-76
2022/10/20 03:18:43;;;;;;;16.98;8.77;;;3.60;99.90;;;1.92;100.00;101328.53;4925366;29;20063;-76
2022/10/20 03:21:09;;;;;;;20.85;9.43;;;3.60;99.90;;;1.91;100.00;101318.75;4924356;29;20039;-76
2022/10/20 03:23:35;;;;;;;16.13;8.48;;;3.60;99.90;;;1.86;100.00;101319.19;4925451;28;20044;-76
2022/10/20 03:26:06;;;;;;;15.88;8.48;;;3.60;99.90;;;1.90;100.00;101308.16;4929531;29;20047;-76
2022/10/20 03:28:32;;;;;;;18.20;9.40;;;3.60;99.90;;;2.01;100.00;101319.59;4928466;29;20047;-76
2022/10/20 03:30:58;;;;;;;19.98;9.07;;;3.70;99.90;;;1.96;100.00;101302.19;4926792;28;20032;-74
2022/10/20 03:33:24;;;;;;;14.45;8.77;;;3.70;99.90;;;1.83;100.00;101284.47;4929329;29;20479;-76
2022/10/20 03:35:50;;;;;;;17.65;8.35;;;3.70;99.90;;;1.85;100.00;101313.94;4925934;28;20036;-75
2022/10/20 03:38:16;;;;;;;16.00;7.97;;;3.60;99.90;;;1.62;100.00;101308.84;4924619;29;20031;-75
2022/10/20 03:40:42;;;;;;;17.67;8.73;;;3.40;99.90;;;1.39;100.00;101303.75;4924772;29;20493;-75
2022/10/20 03:43:07;;;;;;;17.80;8.75;;;3.10;99.90;;;1.27;100.00;101294.13;4923630;29;20036;-75
2022/10/20 03:45:33;;;;;;;18.27;8.18;;;3.10;99.90;;;1.50;100.00;101302.75;4923910;29;20035;-76
2022/10/20 03:47:59;;;;;;;16.33;8.07;;;3.20;99.90;;;1.69;100.00;101288.44;4927888;29;20038;-75
2022/10/20 03:50:25;;;;;;;17.30;8.43;;;3.40;99.90;;;1.98;100.00;101297.50;4928462;29;20067;-77
2022/10/20 03:52:51;;;;;;;20.60;9.57;;;3.60;99.90;;;2.08;100.00;101287.56;4927214;29;20040;-76
2022/10/20 03:55:18;;;;;;;21.02;8.73;;;3.70;99.90;;;2.12;100.00;101293.50;4929024;29;20035;-77
2022/10/20 03:57:44;;;;;;;20.23;9.20;;;3.70;99.90;;;2.10;100.00;101282.88;4928308;29;20072;-77
2022/10/20 04:00:11;;;;;;;18.52;9.32;;;3.80;99.90;;;2.14;100.00;101288.81;4927009;29;20027;-78
2022/10/20 04:02:44;;;;;;;18.50;9.05;;;3.80;99.90;;;1.92;100.00;101255.03;4928677;29;20051;-76
2022/10/20 04:05:19;;;;;;;17.17;9.00;;;3.70;99.90;;;1.98;100.00;101281.34;4924239;29;20476;-77
2022/10/20 04:07:46;;;;;;;21.13;9.73;;;3.70;99.90;;;1.98;100.00;101275.97;4925179;28;20035;-77
2022/10/20 04:10:14;;;;;;;17.58;8.95;;;3.60;99.90;;;1.93;100.00;101278.25;4922850;29;20036;-77
2022/10/20 04:12:40;;;;;;;19.60;9.10;;;3.60;99.90;;;1.83;100.00;101260.25;4923210;28;20649;-77
2022/10/20 04:15:07;;;;;;;16.38;8.75;;;3.60;99.90;;;1.91;100.00;101264.09;4923971;28;20035;-81
2022/10/20 04:17:35;;;;;;;20.27;9.00;;;3.60;99.90;;;2.07;100.00;101272.38;4928793;28;20082;-81
2022/10/20 04:20:02;;;;;;;16.17;8.25;;;3.60;99.90;;;2.24;100.00;101269.94;4928375;29;20032;-81
2022/10/20 04:22:28;;;;;;;17.65;9.00;;;3.80;99.90;;;2.30;100.00;101262.13;4927505;29;20035;-80
2022/10/20 04:24:54;;;;;;;17.73;8.68;;;3.90;99.90;;;2.35;100.00;101256.28;4925797;29;20054;-76
2022/10/20 04:27:20;;;;;;;17.77;9.55;;;4.00;99.90;;;2.44;100.00;101243.78;4926941;29;20518;-74
2022/10/20 04:29:46;;;;;;;18.05;9.07;;;4.00;99.90;;;2.48;100.00;101212.84;4926809;29;20039;-75
2022/10/20 04:32:12;;;;;;;18.70;9.02;;;4.10;99.90;;;2.73;100.00;101221.22;4926698;29;20384;-76
2022/10/20 04:34:38;;;;;;;18.73;9.23;;;4.30;99.90;;;2.59;100.00;101187.56;4925666;29;20046;-78
2022/10/20 04:37:04;;;;;;;15.07;7.88;;;4.40;99.90;;;2.84;100.00;101215.66;4922408;29;20075;-76
2022/10/20 04:39:30;;;;;;;12.90;7.20;;;4.40;99.90;;;2.68;100.00;101188.50;4920975;29;20077;-76
2022/10/20 04:41:56;;;;;;;16.77;8.32;;;4.40;99.90;;;2.75;100.00;101213.84;4920981;29;20040;-78
2022/10/20 04:44:21;;;;;;;16.52;8.07;;;4.30;99.90;;;2.55;100.00;101197.81;4924544;29;20568;-76
2022/10/20 04:46:47;;;;;;;13.07;7.28;;;4.20;99.90;;;2.43;100.00;101213.31;4922550;29;20043;-76
2022/10/20 04:49:14;;;;;;;13.73;6.88;;;4.10;99.90;;;2.28;100.00;101210.28;4928209;29;20028;-76
2022/10/20 04:51:40;;;;;;;14.23;7.63;;;3.90;99.90;;;2.15;100.00;101205.22;4925124;29;20028;-77
2022/10/20 04:54:05;;;;;;;14.93;6.97;;;3.90;99.90;;;2.08;100.00;101201.41;4927419;29;20043;-77
2022/10/20 04:56:31;;;;;;;13.27;6.53;;;3.80;99.90;;;2.00;100.00;101188.72;4928025;28;20035;-76
2022/10/20 04:58:58;;;;;;;11.88;6.15;;;3.70;99.90;;;2.19;100.00;101195.00;4924867;28;20082;-78
2022/10/20 05:01:28;;;;;;;13.30;7.03;;;3.70;99.90;;;2.38;100.00;101201.28;4928048;28;21575;-78
2022/10/20 05:03:55;;;;;;;13.73;7.25;;;3.90;99.90;;;2.39;100.00;101185.00;4925638;28;20044;-77
2022/10/20 05:06:25;;;;;;;13.80;6.75;;;4.00;99.90;;;2.43;100.00;101194.47;4924026;29;20032;-76
2022/10/20 05:08:55;;;;;;;11.60;6.88;;;4.10;99.90;;;2.42;100.00;101189.22;4923047;29;20108;-77
2022/10/20 05:11:24;;;;;;;16.33;6.95;;;4.00;99.90;;;2.36;100.00;101169.13;4922055;28;20113;-78
2022/10/20 05:13:50;;;;;;;12.10;6.90;;;4.00;99.90;;;2.37;100.00;101181.59;4922224;29;20115;-76
2022/10/20 05:16:16;;;;;;;12.10;6.43;;;4.00;99.90;;;2.39;100.00;101174.22;4923992;28;20043;-77
2022/10/20 05:18:43;;;;;;;16.92;6.82;;;4.00;99.90;;;2.32;100.00;101164.19;4918130;28;20036;-79
2022/10/20 05:21:15;;;;;;;11.82;6.57;;;4.00;99.90;;;2.28;100.00;101159.13;4927899;29;20054;-79
2022/10/20 05:23:42;;;;;;;13.43;7.10;;;3.90;99.90;;;2.30;100.00;101170.59;4923902;29;20038;-78
2022/10/20 05:26:17;;;;;;;16.40;7.53;;;3.90;99.90;;;2.36;100.00;101165.59;4928100;29;20031;-78
2022/10/20 05:28:45;;;;;;;11.98;7.50;;;3.90;99.90;;;2.37;100.00;101162.72;4926432;29;20040;-78
2022/10/20 05:31:12;;;;;;;16.95;7.97;;;4.00;99.90;;;2.41;100.00;101161.47;4922887;29;20391;-79
2022/10/20 05:33:38;;;;;;;13.23;7.85;;;4.00;99.90;;;2.41;100.00;101157.91;4925616;29;20032;-77
2022/10/20 05:36:13;;;;;;;16.77;8.10;;;4.10;99.90;;;2.46;100.00;101165.53;4922430;29;20027;-78
2022/10/20 05:38:39;;;;;;;15.07;8.50;;;4.10;99.90;;;2.51;100.00;101180.22;4926954;29;20539;-79
2022/10/20 05:41:18;;;;;;;17.77;8.35;;;4.10;99.90;;;2.56;100.00;101175.25;4923290;29;20039;-81
2022/10/20 05:43:55;;;;;;;16.50;8.85;;;4.10;99.90;;;2.58;100.00;101170.56;4924450;29;20050;-77
2022/10/20 05:46:22;;;;;;;16.83;8.70;;;4.20;99.90;;;2.52;100.00;101171.19;4920741;28;20502;-79
2022/10/20 05:48:53;;;;;;;15.35;8.95;;;4.20;99.90;;;2.51;100.00;101165.94;4921473;29;20078;-78
2022/10/20 05:51:23;;;;;;;15.85;9.07;;;4.10;99.90;;;2.55;100.00;101170.88;4920832;29;20649;-77
2022/10/20 05:53:51;;;;;;;16.35;8.85;;;4.10;99.90;;;2.50;100.00;101156.16;4920612;28;20569;-77
2022/10/20 05:56:20;;;;;;;16.58;8.85;;;4.10;99.90;;;2.55;100.00;101161.94;4926887;29;20576;-77
2022/10/20 05:58:47;;;;;;;16.98;9.13;;;4.10;99.90;;;2.52;100.00;101144.25;4925949;29;20545;-77
2022/10/20 06:01:48;;;;;;;20.55;10.65;;;4.20;99.90;;;2.68;100.00;101159.72;4919815;29;20043;-76
2022/10/20 06:04:24;;;;;;;20.20;10.23;;;4.20;99.90;;;2.77;100.00;101167.88;4921179;29;20388;-76
2022/10/20 06:06:51;;;;;;;19.60;11.48;;;4.40;99.90;;;2.76;100.00;101158.13;4922337;29;20570;-75
2022/10/20 06:09:18;;;;;;;21.17;11.25;;;4.40;99.90;;;2.82;100.00;101169.13;4925540;28;20731;-76
2022/10/20 06:11:44;;;;;;;21.13;11.52;;;4.40;99.90;;;2.86;100.00;101166.97;4923428;29;20058;-77
2022/10/20 06:14:10;;;;;;;26.67;13.10;;;4.50;99.90;;;2.91;100.00;101169.22;4927192;29;20024;-77
2022/10/20 06:16:37;;;;;;;21.20;12.70;;;4.50;99.90;;;2.94;100.00;101166.19;4929352;29;20477;-77
2022/10/20 06:19:04;;;;;;;22.23;11.68;;;4.50;99.90;;;2.97;100.00;101177.53;4926329;29;20677;-77
2022/10/20 06:21:32;;;;;;;22.13;11.90;;;4.60;99.90;;;2.99;100.00;101171.97;4929343;28;20039;-75
2022/10/20 06:23:58;;;;;;;;;;;4.60;99.90;;;3.04;100.00;101168.81;4927110;28;20043;-78
2022/10/20 06:26:31;;;;;;;21.08;12.23;;;4.60;99.90;;;3.08;100.00;101159.41;4927816;28;19911;-77
2022/10/20 06:28:59;;;;;;;24.70;13.40;;;4.70;99.90;;;3.17;100.00;101163.88;4921289;29;20034;-76
2022/10/20 06:31:29;;;;;;;22.13;13.48;;;4.70;99.90;;;3.22;100.00;101158.03;4925581;29;20048;-77
2022/10/20 06:33:57;;;;;;;23.42;14.13;;;4.80;99.90;;;3.25;100.00;101149.63;4926807;29;20027;-77
2022/10/20 06:36:24;;;;;;;24.57;13.40;;;4.80;99.90;;;3.31;100.00;101159.78;4922342;29;20709;-75
2022/10/20 06:38:56;;;;;;;25.08;14.35;;;4.90;99.90;;;3.33;100.00;101151.53;4922948;29;20309;-80
2022/10/20 06:41:24;;;;;;;25.73;13.40;;;4.90;99.90;;;3.37;100.00;101153.78;4921443;29;20051;-77
2022/10/20 06:43:58;;;;;;;24.85;13.70;;;5.00;99.90;;;3.37;100.00;101147.53;4929544;29;20410;-78
2022/10/20 06:46:26;;;;;;;28.13;14.30;;;5.00;99.90;;;3.44;100.00;101156.66;4932565;29;20066;-77
2022/10/20 06:48:52;;;;;;;23.90;12.95;;;5.00;99.90;;;3.52;100.00;101172.94;4934780;29;20495;-77
2022/10/20 06:51:23;;;;;;;23.88;13.40;;;5.10;99.90;;;3.49;100.00;101157.06;4930543;28;20035;-78
2022/10/20 06:53:50;;;;;;;24.08;12.45;;;5.10;99.90;;;3.58;100.00;101164.19;4927175;29;20043;-76
2022/10/20 06:56:25;;;;;;;23.90;12.98;;;5.20;99.90;;;3.62;100.00;101164.75;4932411;29;20222;-78
2022/10/20 06:58:54;;;;;;;25.08;13.40;;;5.20;99.90;;;3.61;100.00;101157.66;4930325;28;20483;-76
2022/10/20 07:01:30;;;;;;;22.17;12.70;;;5.20;99.90;;;3.68;100.00;101155.16;4933274;29;20074;-78
2022/10/20 07:04:08;;;;;;;21.73;13.45;;;5.20;99.90;;;3.57;100.00;101129.28;4927431;29;20584;-77
2022/10/20 07:06:38;;;;;;;22.67;12.50;;;5.30;99.90;;;3.75;100.00;101142.72;4921907;29;20588;-78
2022/10/20 07:09:07;;;;;;;23.42;13.38;;;5.30;99.90;;;3.79;100.00;101137.84;4927586;29;20040;-77
2022/10/20 07:11:35;;;;;;;22.50;13.55;;;5.30;99.90;;;3.81;100.00;101147.47;4926220;28;20027;-78
2022/10/20 07:14:01;;;;;;;22.67;12.80;;;5.40;99.90;;;3.91;100.00;101141.97;4927151;28;20031;-77
2022/10/20 07:16:31;;;;;;;22.00;14.77;;;5.50;99.90;;;3.86;100.00;101128.13;4929899;28;20031;-76
2022/10/20 07:18:59;;;;;;;23.50;13.88;;;5.50;99.90;;;3.96;100.00;101117.16;4932111;29;20027;-77
2022/10/20 07:21:27;;;;;;;25.50;14.00;;;5.60;99.90;;;4.10;100.00;101135.47;4929137;29;20580;-77
2022/10/20 07:23:56;;;;;;;22.08;13.73;;;5.60;99.90;;;4.13;100.00;101116.25;4923357;29;20399;-77
2022/10/20 07:26:30;;;;;;;22.40;13.75;;;5.80;99.90;;;4.24;100.00;101111.53;4924307;29;20105;-77
2022/10/20 07:28:59;;;;;;;19.92;13.25;;;5.80;99.90;;;4.31;100.00;101096.38;4923082;29;20403;-76
2022/10/20 07:31:28;;;;;;;27.88;13.75;;;5.90;99.90;;;4.35;100.00;101091.47;4921236;29;20039;-78
2022/10/20 07:33:54;;;;;;;20.73;13.10;;;6.00;99.90;;;4.54;100.00;101098.47;4920038;29;20035;-77
2022/10/20 07:36:27;;;;;;;20.75;12.38;;;6.10;99.90;;;4.75;100.00;101111.50;4918736;29;20503;-76
2022/10/20 07:38:56;;;;;;;21.05;12.75;;;6.30;99.90;;;4.85;100.00;101111.34;4925414;29;20043;-80
2022/10/20 07:41:23;;;;;;;21.73;13.27;;;6.40;99.90;;;4.87;100.00;101085.00;4929158;29;20024;-77
2022/10/20 07:43:49;;;;;;;18.88;12.10;;;6.50;99.90;;;5.11;100.00;101088.72;4926227;28;20131;-78
2022/10/20 07:46:15;;;;;;;20.65;12.60;;;6.70;99.90;;;5.28;100.00;101097.66;4922873;29;20062;-78
2022/10/20 07:48:41;;;;;;;18.00;11.77;;;6.80;99.90;;;5.39;100.00;101101.88;4922172;29;20031;-77
2022/10/20 07:51:24;;;;;;;17.40;10.95;;;6.90;99.90;;;5.55;100.00;101103.69;4922910;29;20044;-77
2022/10/20 07:54:05;;;;;;;18.65;11.18;;;7.10;99.90;;;5.56;100.00;101072.91;4924294;29;20048;-77
2022/10/20 07:56:38;;;;;;;17.33;10.40;;;7.20;99.90;;;5.79;100.00;101086.53;4928153;29;20023;-77
2022/10/20 07:59:05;;;;;;;17.20;11.27;;;7.40;99.90;;;6.00;100.00;101096.81;4932787;29;20032;-78
2022/10/20 08:01:31;;;;;;;18.20;10.68;;;7.60;99.90;;;5.99;100.00;101087.00;4921663;29;20047;-77
2022/10/20 08:03:57;;;;;;;16.88;10.65;;;7.70;99.90;;;6.21;100.00;101097.25;4922019;29;20043;-78
2022/10/20 08:06:24;;;;;;;13.73;9.07;;;7.80;99.90;;;6.12;100.00;101070.19;4923802;29;20044;-77
2022/10/20 08:08:49;;;;;;;17.10;9.82;;;7.90;99.90;;;6.35;100.00;101077.50;4925271;29;20031;-76
2022/10/20 08:11:16;;;;;;;17.13;10.13;;;8.00;99.90;;;6.46;100.00;101074.41;4927675;28;20032;-78
2022/10/20 08:13:42;;;;;;;17.58;9.60;;;8.10;99.90;;;6.66;100.00;101075.78;4923826;29;20028;-75
2022/10/20 08:16:10;;;;;;;13.70;9.73;;;8.20;99.90;;;6.80;100.00;101087.72;4921689;29;20060;-79
2022/10/20 08:18:36;;;;;;;14.10;8.98;;;8.40;99.90;;;6.83;100.00;101068.38;4923999;29;20035;-80
2022/10/20 08:21:16;;;;;;;15.45;9.20;;;8.50;99.90;;;7.04;100.00;101084.81;4923274;29;20469;-77
2022/10/20 08:23:46;;;;;;;14.63;8.35;;;8.60;99.90;;;7.12;100.00;101088.47;4922505;29;20095;-78
2022/10/20 08:26:22;;;;;;;12.55;8.50;;;8.80;99.90;;;7.29;100.00;101091.88;4921283;28;20514;-76
2022/10/20 08:28:50;;;;;;;13.85;8.77;;;8.90;99.90;;;7.44;100.00;101078.38;4920598;29;20070;-77
2022/10/20 08:31:16;;;;;;;15.07;8.80;;;9.10;99.90;;;7.66;100.00;101078.44;4915490;29;20036;-77
2022/10/20 08:33:42;;;;;;;15.57;8.70;;;9.20;99.90;;;7.43;100.00;101074.78;4922219;28;20060;-76
2022/10/20 08:36:12;;;;;;;12.45;8.07;;;9.20;99.90;;;7.37;100.00;101061.13;4924978;29;20027;-77
2022/10/20 08:38:40;;;;;;;11.30;8.10;;;9.10;99.90;;;7.42;100.00;101093.97;4924372;29;20032;-77
2022/10/20 08:41:18;;;;;;;14.65;9.45;;;9.00;99.90;;;7.48;100.00;101064.22;4921604;29;20423;-77
2022/10/20 08:43:48;;;;;;;12.43;8.45;;;9.20;99.90;;;7.66;100.00;101063.00;4925655;28;20039;-78
2022/10/20 08:46:17;;;;;;;11.52;8.05;;;9.30;99.90;;;7.61;100.00;101066.28;4924916;28;20356;-78
2022/10/20 08:48:45;;;;;;;13.30;7.55;;;9.30;99.90;;;7.46;100.00;101069.00;4930005;29;20094;-78
2022/10/20 08:51:20;;;;;;;12.63;8.15;;;9.20;99.90;;;7.55;100.00;101069.75;4923434;29;20067;-78
2022/10/20 08:53:50;;;;;;;12.48;8.27;;;9.10;99.90;;;7.84;100.00;101048.22;4926027;29;20508;-78
2022/10/20 08:56:28;;;;;;;12.85;8.75;;;9.40;99.90;;;7.98;100.00;101019.34;4921668;29;20456;-78
2022/10/20 08:58:54;;;;;;;11.93;8.20;;;9.60;99.90;;;8.29;100.00;101039.97;4927530;29;20066;-76
2022/10/20 09:01:23;;;;;;;12.93;8.50;;;9.90;99.90;;;8.65;100.00;101038.28;4923326;29;20032;-77
2022/10/20 09:04:20;;;;;;;11.52;8.05;;;10.10;99.90;;;8.93;100.00;101038.31;4920081;29;20031;-77
2022/10/20 09:06:58;;;;;;;10.65;6.90;;;10.40;99.90;;;9.17;100.00;101039.78;4919764;29;20135;-77
2022/10/20 09:09:29;;;;;;;11.55;7.53;;;10.70;99.90;;;9.23;100.00;101032.66;4924286;29;20036;-77
2022/10/20 09:12:05;;;;;;;13.90;8.32;;;10.90;99.90;;;8.94;98.94;101028.28;4919811;29;20271;-77
2022/10/20 09:14:36;;;;;;;11.90;7.45;;;10.80;99.90;;;8.94;100.00;101036.44;4915824;29;20080;-77
2022/10/20 09:17:04;;;;;;;14.60;7.65;;;10.60;99.90;;;9.09;100.00;101049.97;4919919;29;20102;-79
2022/10/20 09:19:30;;;;;;;11.73;7.13;;;10.70;99.90;;;8.98;100.00;101038.56;4924448;29;20483;-76
2022/10/20 09:22:06;;;;;;;10.82;7.15;;;10.70;99.90;;;9.07;99.97;101020.22;4923891;29;20074;-79
2022/10/20 09:24:35;;;;;;;9.52;7.05;;;10.80;99.90;;;9.24;97.17;101026.19;4919910;29;20039;-75
2022/10/20 09:27:28;;;;;;;11.13;6.38;;;10.90;99.90;;;9.32;95.77;101030.66;4918625;29;20044;-78
2022/10/20 09:29:54;;;;;;;10.30;7.05;;;11.00;99.90;;;9.36;97.05;101007.41;4920510;29;20046;-74
2022/10/20 09:32:34;;;;;;;9.77;6.85;;;11.10;99.90;;;9.45;94.18;101002.66;4919432;29;20036;-76
2022/10/20 09:35:24;;;;;;;11.80;7.40;;;11.40;99.90;;;9.60;92.25;101014.28;4920728;29;20024;-75
2022/10/20 09:37:52;;;;;;;;;;;11.70;99.90;;;10.07;95.51;101041.72;4913985;29;20036;-75
2022/10/20 09:40:19;;;;;;;9.30;6.45;;;12.30;99.90;;;10.03;89.03;101034.16;4928743;29;20317;-75
2022/10/20 09:43:10;;;;;;;11.05;6.93;;;12.40;99.90;;;10.38;90.86;101034.06;4928898;29;20044;-76
2022/10/20 09:45:51;;;;;;;10.07;7.35;;;12.60;99.90;;;11.26;84.09;101037.72;4929486;28;20203;-76
2022/10/20 09:48:25;;;;;;;9.63;6.15;;;13.60;99.90;;;12.27;80.73;101034.69;4925720;29;20078;-77
2022/10/20 09:50:55;;;;;;;9.48;6.65;;;14.70;99.90;;;12.59;71.84;101033.88;4928102;29;20032;-76
2022/10/20 09:53:32;;;;;;;8.73;6.35;;;15.10;99.90;;;13.51;71.23;101035.22;4929397;29;20039;-75
2022/10/20 09:55:58;;;;;;;11.70;6.45;;;15.50;99.90;;;14.67;66.08;101028.88;4915664;29;20068;-76
2022/10/20 09:58:36;;;;;;;9.85;6.38;;;16.20;99.90;;;14.80;63.47;101019.59;4924197;29;20052;-76
2022/10/20 10:01:22;;;;;;;10.05;5.88;;;16.40;99.30;;;15.07;61.12;101007.34;4921774;29;20036;-77
2022/10/20 10:03:51;;;;;;;8.80;5.15;;;16.70;97.50;;;14.73;60.38;101010.66;4925308;29;20034;-77
2022/10/20 10:06:42;;;;;;;8.40;5.53;;;16.60;96.90;;;15.77;59.73;100994.59;4924336;29;20040;-76
2022/10/20 10:09:34;;;;;;;9.38;5.47;;;16.90;98.20;;;16.03;56.41;100980.56;4928790;29;20035;-77
2022/10/20 10:12:18;;;;;;;8.07;5.25;;;17.50;94.80;;;15.07;60.63;100968.88;4924436;29;20040;-79
2022/10/20 10:14:59;;;;;;;9.60;5.75;;;17.10;95.80;;;15.01;62.97;100981.66;4924606;29;20431;-77
2022/10/20 10:17:38;;;;;;;8.35;6.13;;;16.80;97.60;;;14.62;63.63;100984.00;4923111;29;20076;-78
2022/10/20 10:20:32;;;;;;;11.57;6.28;;;16.50;97.80;;;14.42;63.72;100990.63;4923680;29;20023;-78
2022/10/20 10:23:19;;;;;;;8.32;5.75;;;16.20;98.10;;;14.22;63.17;100980.75;4925712;29;20031;-78
2022/10/20 10:25:46;;;;;;;10.82;5.93;;;16.10;98.00;;;14.67;63.56;100979.44;4927614;29;20043;-79
2022/10/20 10:28:36;;;;;;;9.75;5.85;;;16.20;98.40;;;14.62;63.93;100962.03;4925098;29;20106;-77
2022/10/20 10:31:16;;;;;;;12.73;5.70;;;16.30;98.70;;;14.20;62.94;100960.94;4929514;29;20047;-80